sensor_id;sensor_type;location;lat;lon;timestamp;pressure;altitude;pressure_sealevel;temperature;humidity
46846;BME280;33947;46.804;134.252;2023-07-31T00:02:25;100428.97;;;27.88;63.58
46846;BME280;33947;46.804;134.252;2023-07-31T00:05:29;100395.34;;;27.69;63.42
46846;BME280;33947;46.804;134.252;2023-07-31T00:08:34;100436.09;;;28.78;60.95
46846;BME280;33947;46.804;134.252;2023-07-31T00:11:39;100406.94;;;29.63;58.23
46846;BME280;33947;46.804;134.252;2023-07-31T00:14:43;100420.88;;;29.35;58.90
46846;BME280;33947;46.804;134.252;2023-07-31T00:17:47;100443.09;;;28.54;58.91
46846;BME280;33947;46.804;134.252;2023-07-31T00:20:52;100412.25;;;28.09;62.51
46846;BME280;33947;46.804;134.252;2023-07-31T00:23:56;100445.44;;;29.02;62.06
46846;BME280;33947;46.804;134.252;2023-07-31T00:27:01;100422.72;;;30.19;56.96
46846;BME280;33947;46.804;134.252;2023-07-31T00:30:06;100437.59;;;30.33;57.89
46846;BME280;33947;46.804;134.252;2023-07-31T00:33:13;100433.38;;;31.50;54.88
46846;BME280;33947;46.804;134.252;2023-07-31T00:36:18;100441.50;;;32.28;52.55
46846;BME280;33947;46.804;134.252;2023-07-31T00:39:27;100429.13;;;32.32;52.65
46846;BME280;33947;46.804;134.252;2023-07-31T00:42:31;100425.84;;;32.14;53.65
46846;BME280;33947;46.804;134.252;2023-07-31T00:45:37;100401.63;;;31.94;50.20
46846;BME280;33947;46.804;134.252;2023-07-31T00:48:41;100394.38;;;31.55;54.19
46846;BME280;33947;46.804;134.252;2023-07-31T00:51:47;100419.78;;;32.87;51.88
46846;BME280;33947;46.804;134.252;2023-07-31T00:54:53;100421.00;;;32.39;52.07
46846;BME280;33947;46.804;134.252;2023-07-31T00:57:58;100411.28;;;31.90;53.41
46846;BME280;33947;46.804;134.252;2023-07-31T01:01:05;100394.53;;;32.53;52.42
46846;BME280;33947;46.804;134.252;2023-07-31T01:32:54;100428.72;;;31.74;51.33
46846;BME280;33947;46.804;134.252;2023-07-31T01:35:59;100401.66;;;30.11;55.16
46846;BME280;33947;46.804;134.252;2023-07-31T01:39:04;100436.72;;;30.32;55.64
46846;BME280;33947;46.804;134.252;2023-07-31T01:42:09;100440.28;;;31.06;53.38
46846;BME280;33947;46.804;134.252;2023-07-31T01:45:13;100438.28;;;30.10;55.14
46846;BME280;33947;46.804;134.252;2023-07-31T01:48:20;100430.53;;;29.56;57.18
46846;BME280;33947;46.804;134.252;2023-07-31T01:51:25;100412.13;;;31.12;52.92
46846;BME280;33947;46.804;134.252;2023-07-31T01:54:33;100436.84;;;32.52;49.91
46846;BME280;33947;46.804;134.252;2023-07-31T01:57:40;100425.03;;;31.90;51.12
46846;BME280;33947;46.804;134.252;2023-07-31T02:00:49;100440.44;;;31.04;53.75
46846;BME280;33947;46.804;134.252;2023-07-31T02:03:53;100442.69;;;31.41;52.64
46846;BME280;33947;46.804;134.252;2023-07-31T02:06:58;100432.59;;;32.26;51.15
46846;BME280;33947;46.804;134.252;2023-07-31T02:10:03;100444.38;;;31.10;53.34
46846;BME280;33947;46.804;134.252;2023-07-31T02:13:11;100440.69;;;31.35;53.61
46846;BME280;33947;46.804;134.252;2023-07-31T02:16:16;100449.97;;;31.57;53.06
46846;BME280;33947;46.804;134.252;2023-07-31T02:19:21;100444.59;;;30.60;55.14
46846;BME280;33947;46.804;134.252;2023-07-31T02:22:25;100436.97;;;30.79;54.56
46846;BME280;33947;46.804;134.252;2023-07-31T02:25:33;100445.56;;;31.47;52.99
46846;BME280;33947;46.804;134.252;2023-07-31T02:28:37;100443.47;;;31.81;52.83
46846;BME280;33947;46.804;134.252;2023-07-31T02:31:42;100439.50;;;31.84;52.30
46846;BME280;33947;46.804;134.252;2023-07-31T02:34:46;100431.59;;;29.96;56.99
46846;BME280;33947;46.804;134.252;2023-07-31T02:37:52;100426.16;;;30.13;57.39
46846;BME280;33947;46.804;134.252;2023-07-31T02:40:57;100435.69;;;30.50;56.45
46846;BME280;33947;46.804;134.252;2023-07-31T02:44:03;100433.41;;;30.70;54.96
46846;BME280;33947;46.804;134.252;2023-07-31T02:47:07;100405.06;;;30.22;56.47
46846;BME280;33947;46.804;134.252;2023-07-31T02:50:12;100441.78;;;30.77;55.93
46846;BME280;33947;46.804;134.252;2023-07-31T02:53:16;100433.94;;;30.49;55.28
46846;BME280;33947;46.804;134.252;2023-07-31T02:56:21;100440.53;;;30.15;57.05
46846;BME280;33947;46.804;134.252;2023-07-31T02:59:25;100461.88;;;30.44;55.79
46846;BME280;33947;46.804;134.252;2023-07-31T03:02:29;100451.13;;;30.18;54.94
46846;BME280;33947;46.804;134.252;2023-07-31T03:05:34;100435.19;;;29.64;58.26
46846;BME280;33947;46.804;134.252;2023-07-31T03:08:38;100440.16;;;30.26;56.51
46846;BME280;33947;46.804;134.252;2023-07-31T03:11:43;100438.13;;;30.03;56.37
46846;BME280;33947;46.804;134.252;2023-07-31T03:14:47;100457.56;;;30.67;58.54
46846;BME280;33947;46.804;134.252;2023-07-31T03:17:51;100460.50;;;29.82;57.02
46846;BME280;33947;46.804;134.252;2023-07-31T03:20:56;100445.31;;;30.21;56.05
46846;BME280;33947;46.804;134.252;2023-07-31T03:24:00;100452.09;;;30.58;54.77
46846;BME280;33947;46.804;134.252;2023-07-31T03:27:05;100424.16;;;30.71;54.87
46846;BME280;33947;46.804;134.252;2023-07-31T03:30:10;100430.06;;;30.18;55.81
46846;BME280;33947;46.804;134.252;2023-07-31T03:33:22;100423.88;;;29.92;55.61
46846;BME280;33947;46.804;134.252;2023-07-31T03:36:26;100458.94;;;29.71;57.50
46846;BME280;33947;46.804;134.252;2023-07-31T03:39:31;100448.72;;;29.98;56.49
46846;BME280;33947;46.804;134.252;2023-07-31T03:42:36;100457.56;;;29.51;58.22
46846;BME280;33947;46.804;134.252;2023-07-31T03:45:40;100449.91;;;29.71;57.02
46846;BME280;33947;46.804;134.252;2023-07-31T03:48:46;100443.63;;;29.27;59.08
46846;BME280;33947;46.804;134.252;2023-07-31T03:51:51;100441.34;;;29.74;57.80
46846;BME280;33947;46.804;134.252;2023-07-31T03:54:56;100438.06;;;29.70;56.97
46846;BME280;33947;46.804;134.252;2023-07-31T03:58:00;100434.34;;;29.12;57.20
46846;BME280;33947;46.804;134.252;2023-07-31T04:01:04;100427.47;;;29.59;57.82
46846;BME280;33947;46.804;134.252;2023-07-31T04:04:09;100433.31;;;29.81;56.82
46846;BME280;33947;46.804;134.252;2023-07-31T04:07:13;100434.66;;;29.68;58.11
46846;BME280;33947;46.804;134.252;2023-07-31T04:10:18;100409.19;;;29.59;58.02
46846;BME280;33947;46.804;134.252;2023-07-31T04:13:23;100438.91;;;29.54;57.50
46846;BME280;33947;46.804;134.252;2023-07-31T04:16:31;100431.59;;;29.80;57.63
46846;BME280;33947;46.804;134.252;2023-07-31T04:19:45;100431.47;;;29.22;59.22
46846;BME280;33947;46.804;134.252;2023-07-31T04:22:49;100437.72;;;29.40;58.83
46846;BME280;33947;46.804;134.252;2023-07-31T04:25:54;100428.69;;;29.73;58.06
46846;BME280;33947;46.804;134.252;2023-07-31T04:28:58;100431.59;;;29.96;57.49
46846;BME280;33947;46.804;134.252;2023-07-31T04:32:02;100435.72;;;29.84;56.79
46846;BME280;33947;46.804;134.252;2023-07-31T04:35:07;100433.78;;;29.51;57.07
46846;BME280;33947;46.804;134.252;2023-07-31T04:38:11;100448.19;;;29.86;56.55
46846;BME280;33947;46.804;134.252;2023-07-31T04:41:16;100444.09;;;29.74;56.61
46846;BME280;33947;46.804;134.252;2023-07-31T04:44:20;100444.09;;;29.74;56.93
46846;BME280;33947;46.804;134.252;2023-07-31T04:47:24;100444.09;;;29.82;56.73
46846;BME280;33947;46.804;134.252;2023-07-31T04:50:53;100434.31;;;29.55;56.62
46846;BME280;33947;46.804;134.252;2023-07-31T04:53:58;100428.84;;;29.55;57.73
46846;BME280;33947;46.804;134.252;2023-07-31T04:57:02;100431.38;;;29.48;56.59
46846;BME280;33947;46.804;134.252;2023-07-31T05:00:07;100430.41;;;29.66;56.79
46846;BME280;33947;46.804;134.252;2023-07-31T05:03:11;100420.47;;;29.89;56.43
46846;BME280;33947;46.804;134.252;2023-07-31T05:06:16;100408.66;;;29.56;56.45
46846;BME280;33947;46.804;134.252;2023-07-31T05:09:20;100426.09;;;29.55;56.64
46846;BME280;33947;46.804;134.252;2023-07-31T05:12:25;100422.44;;;29.29;57.15
46846;BME280;33947;46.804;134.252;2023-07-31T05:15:29;100424.25;;;29.72;56.99
46846;BME280;33947;46.804;134.252;2023-07-31T05:18:34;100408.81;;;29.87;56.76
46846;BME280;33947;46.804;134.252;2023-07-31T05:21:38;100405.22;;;29.70;56.15
46846;BME280;33947;46.804;134.252;2023-07-31T05:24:42;100403.19;;;29.72;56.47
46846;BME280;33947;46.804;134.252;2023-07-31T05:27:47;100409.00;;;29.53;56.70
46846;BME280;33947;46.804;134.252;2023-07-31T05:30:51;100390.19;;;29.41;56.47
46846;BME280;33947;46.804;134.252;2023-07-31T05:33:55;100419.41;;;29.41;56.08
46846;BME280;33947;46.804;134.252;2023-07-31T05:36:59;100403.72;;;29.59;56.54
46846;BME280;33947;46.804;134.252;2023-07-31T05:40:04;100397.03;;;29.79;55.88
46846;BME280;33947;46.804;134.252;2023-07-31T05:43:09;100393.78;;;29.83;55.93
46846;BME280;33947;46.804;134.252;2023-07-31T05:46:13;100398.22;;;29.84;56.64
46846;BME280;33947;46.804;134.252;2023-07-31T05:49:17;100389.31;;;29.49;55.95
46846;BME280;33947;46.804;134.252;2023-07-31T05:52:22;100397.91;;;29.63;56.16
46846;BME280;33947;46.804;134.252;2023-07-31T05:55:28;100388.13;;;29.85;55.78
46846;BME280;33947;46.804;134.252;2023-07-31T05:58:33;100360.41;;;29.63;56.03
46846;BME280;33947;46.804;134.252;2023-07-31T06:01:37;100387.28;;;29.76;55.39
46846;BME280;33947;46.804;134.252;2023-07-31T06:04:42;100379.56;;;29.46;56.19
46846;BME280;33947;46.804;134.252;2023-07-31T06:07:48;100370.00;;;29.51;55.82
46846;BME280;33947;46.804;134.252;2023-07-31T06:10:55;100376.84;;;29.46;55.72
46846;BME280;33947;46.804;134.252;2023-07-31T06:13:59;100369.66;;;29.54;55.59
46846;BME280;33947;46.804;134.252;2023-07-31T06:17:04;100367.09;;;29.60;55.62
46846;BME280;33947;46.804;134.252;2023-07-31T06:20:08;100372.34;;;29.37;55.88
46846;BME280;33947;46.804;134.252;2023-07-31T06:23:13;100367.06;;;29.52;55.56
46846;BME280;33947;46.804;134.252;2023-07-31T06:26:18;100375.19;;;29.02;56.24
46846;BME280;33947;46.804;134.252;2023-07-31T06:29:22;100362.25;;;29.21;56.54
46846;BME280;33947;46.804;134.252;2023-07-31T06:32:26;100362.75;;;29.16;56.24
46846;BME280;33947;46.804;134.252;2023-07-31T06:35:30;100365.13;;;29.11;55.88
46846;BME280;33947;46.804;134.252;2023-07-31T06:38:35;100362.41;;;29.20;56.05
46846;BME280;33947;46.804;134.252;2023-07-31T06:41:39;100342.91;;;29.06;56.34
46846;BME280;33947;46.804;134.252;2023-07-31T06:44:45;100366.00;;;29.28;56.49
46846;BME280;33947;46.804;134.252;2023-07-31T06:47:50;100355.22;;;29.35;56.45
46846;BME280;33947;46.804;134.252;2023-07-31T06:50:54;100355.56;;;29.32;55.31
46846;BME280;33947;46.804;134.252;2023-07-31T06:53:58;100360.69;;;29.27;55.98
46846;BME280;33947;46.804;134.252;2023-07-31T06:57:03;100360.19;;;29.31;56.54
46846;BME280;33947;46.804;134.252;2023-07-31T07:00:07;100356.84;;;28.95;54.88
46846;BME280;33947;46.804;134.252;2023-07-31T07:03:12;100350.56;;;29.02;56.11
46846;BME280;33947;46.804;134.252;2023-07-31T07:06:18;100344.41;;;29.09;56.20
46846;BME280;33947;46.804;134.252;2023-07-31T07:09:23;100348.03;;;29.26;56.76
46846;BME280;33947;46.804;134.252;2023-07-31T07:12:30;100345.66;;;29.23;56.50
46846;BME280;33947;46.804;134.252;2023-07-31T07:15:34;100346.19;;;29.26;56.61
46846;BME280;33947;46.804;134.252;2023-07-31T07:18:39;100344.97;;;29.29;56.36
46846;BME280;33947;46.804;134.252;2023-07-31T07:21:56;100354.03;;;29.29;56.49
46846;BME280;33947;46.804;134.252;2023-07-31T07:25:00;100357.97;;;29.35;56.88
46846;BME280;33947;46.804;134.252;2023-07-31T07:28:06;100343.09;;;29.38;56.44
46846;BME280;33947;46.804;134.252;2023-07-31T07:31:10;100325.84;;;29.37;56.63
46846;BME280;33947;46.804;134.252;2023-07-31T07:34:15;100329.28;;;29.39;56.46
46846;BME280;33947;46.804;134.252;2023-07-31T07:37:20;100334.22;;;29.36;56.52
46846;BME280;33947;46.804;134.252;2023-07-31T07:40:24;100332.16;;;29.29;57.19
46846;BME280;33947;46.804;134.252;2023-07-31T07:43:28;100350.44;;;29.29;57.16
46846;BME280;33947;46.804;134.252;2023-07-31T07:46:33;100343.09;;;29.21;56.52
46846;BME280;33947;46.804;134.252;2023-07-31T07:49:38;100338.13;;;29.16;56.67
46846;BME280;33947;46.804;134.252;2023-07-31T07:52:42;100331.91;;;28.89;57.05
46846;BME280;33947;46.804;134.252;2023-07-31T07:55:46;100332.56;;;28.83;56.72
46846;BME280;33947;46.804;134.252;2023-07-31T07:58:54;100327.31;;;28.98;57.13
46846;BME280;33947;46.804;134.252;2023-07-31T08:01:58;100339.28;;;29.06;57.17
46846;BME280;33947;46.804;134.252;2023-07-31T08:05:03;100344.41;;;29.00;56.96
46846;BME280;33947;46.804;134.252;2023-07-31T08:08:14;100343.06;;;29.05;57.33
46846;BME280;33947;46.804;134.252;2023-07-31T08:11:20;100340.84;;;29.00;57.76
46846;BME280;33947;46.804;134.252;2023-07-31T08:14:25;100336.19;;;28.92;57.90
46846;BME280;33947;46.804;134.252;2023-07-31T08:17:31;100336.34;;;28.82;57.98
46846;BME280;33947;46.804;134.252;2023-07-31T08:20:36;100324.81;;;28.70;58.27
46846;BME280;33947;46.804;134.252;2023-07-31T08:23:41;100320.69;;;28.58;58.45
46846;BME280;33947;46.804;134.252;2023-07-31T08:26:46;100320.13;;;28.46;58.58
46846;BME280;33947;46.804;134.252;2023-07-31T08:29:52;100297.69;;;28.34;59.29
46846;BME280;33947;46.804;134.252;2023-07-31T08:32:57;100323.53;;;28.48;60.47
46846;BME280;33947;46.804;134.252;2023-07-31T08:36:02;100321.69;;;28.49;60.77
46846;BME280;33947;46.804;134.252;2023-07-31T08:39:07;100312.09;;;28.44;60.87
46846;BME280;33947;46.804;134.252;2023-07-31T08:42:11;100315.59;;;28.28;62.96
46846;BME280;33947;46.804;134.252;2023-07-31T08:45:18;100316.81;;;28.34;61.21
46846;BME280;33947;46.804;134.252;2023-07-31T08:48:23;100318.03;;;28.40;61.91
46846;BME280;33947;46.804;134.252;2023-07-31T08:51:27;100297.84;;;28.24;61.73
46846;BME280;33947;46.804;134.252;2023-07-31T08:54:33;100313.03;;;28.27;62.32
46846;BME280;33947;46.804;134.252;2023-07-31T08:57:38;100334.75;;;28.37;62.72
46846;BME280;33947;46.804;134.252;2023-07-31T09:00:43;100321.25;;;28.35;62.55
46846;BME280;33947;46.804;134.252;2023-07-31T09:03:49;100330.53;;;28.42;62.44
46846;BME280;33947;46.804;134.252;2023-07-31T09:07:02;100345.22;;;28.41;63.01
46846;BME280;33947;46.804;134.252;2023-07-31T09:10:17;100346.13;;;28.24;64.40
46846;BME280;33947;46.804;134.252;2023-07-31T09:13:23;100311.78;;;28.21;62.37
46846;BME280;33947;46.804;134.252;2023-07-31T09:16:51;100326.69;;;28.27;62.88
46846;BME280;33947;46.804;134.252;2023-07-31T09:19:56;100335.41;;;28.30;63.23
46846;BME280;33947;46.804;134.252;2023-07-31T09:23:12;100341.22;;;28.27;63.96
46846;BME280;33947;46.804;134.252;2023-07-31T09:26:39;100317.84;;;28.07;64.60
46846;BME280;33947;46.804;134.252;2023-07-31T09:30:01;100326.69;;;28.00;65.78
46846;BME280;33947;46.804;134.252;2023-07-31T09:33:18;100312.63;;;27.87;65.38
46846;BME280;33947;46.804;134.252;2023-07-31T09:36:29;100335.84;;;27.91;66.51
46846;BME280;33947;46.804;134.252;2023-07-31T09:39:48;100342.56;;;27.79;67.66
46846;BME280;33947;46.804;134.252;2023-07-31T09:42:57;100351.31;;;27.64;67.92
46846;BME280;33947;46.804;134.252;2023-07-31T09:46:02;100346.53;;;27.48;68.68
46846;BME280;33947;46.804;134.252;2023-07-31T09:49:11;100350.84;;;27.33;69.17
46846;BME280;33947;46.804;134.252;2023-07-31T09:52:16;100312.03;;;27.02;69.72
46846;BME280;33947;46.804;134.252;2023-07-31T09:55:20;100344.69;;;27.12;70.36
46846;BME280;33947;46.804;134.252;2023-07-31T09:58:27;100347.09;;;26.97;70.61
46846;BME280;33947;46.804;134.252;2023-07-31T10:01:32;100333.41;;;26.79;71.42
46846;BME280;33947;46.804;134.252;2023-07-31T10:04:37;100339.53;;;26.53;73.35
46846;BME280;33947;46.804;134.252;2023-07-31T10:07:42;100338.63;;;26.63;72.05
46846;BME280;33947;46.804;134.252;2023-07-31T10:10:47;100331.38;;;26.53;72.59
46846;BME280;33947;46.804;134.252;2023-07-31T10:13:51;100338.19;;;26.29;74.19
46846;BME280;33947;46.804;134.252;2023-07-31T10:17:00;100327.19;;;26.31;73.02
46846;BME280;33947;46.804;134.252;2023-07-31T10:20:06;100339.66;;;26.34;73.39
46846;BME280;33947;46.804;134.252;2023-07-31T10:23:12;100324.06;;;26.16;73.99
46846;BME280;33947;46.804;134.252;2023-07-31T10:26:19;100331.94;;;26.19;73.92
46846;BME280;33947;46.804;134.252;2023-07-31T10:29:24;100324.66;;;26.10;74.24
46846;BME280;33947;46.804;134.252;2023-07-31T10:32:30;100333.41;;;26.04;74.50
46846;BME280;33947;46.804;134.252;2023-07-31T10:35:34;100327.97;;;25.94;74.62
46846;BME280;33947;46.804;134.252;2023-07-31T10:38:39;100324.69;;;25.90;74.74
46846;BME280;33947;46.804;134.252;2023-07-31T10:41:43;100323.13;;;25.88;74.51
46846;BME280;33947;46.804;134.252;2023-07-31T10:44:47;100333.44;;;25.84;75.30
46846;BME280;33947;46.804;134.252;2023-07-31T10:48:19;100346.50;;;25.80;74.92
46846;BME280;33947;46.804;134.252;2023-07-31T10:51:23;100341.59;;;25.84;74.04
46846;BME280;33947;46.804;134.252;2023-07-31T10:54:27;100325.31;;;25.54;75.18
46846;BME280;33947;46.804;134.252;2023-07-31T10:57:35;100342.06;;;25.50;75.65
46846;BME280;33947;46.804;134.252;2023-07-31T11:00:43;100355.78;;;25.38;76.10
46846;BME280;33947;46.804;134.252;2023-07-31T11:03:49;100349.47;;;25.08;76.99
46846;BME280;33947;46.804;134.252;2023-07-31T11:07:00;100319.84;;;24.85;77.46
46846;BME280;33947;46.804;134.252;2023-07-31T11:10:07;100333.03;;;25.10;77.01
46846;BME280;33947;46.804;134.252;2023-07-31T11:13:12;100352.59;;;25.13;76.38
46846;BME280;33947;46.804;134.252;2023-07-31T11:16:22;100363.63;;;25.12;76.26
46846;BME280;33947;46.804;134.252;2023-07-31T11:19:27;100342.97;;;24.80;77.45
46846;BME280;33947;46.804;134.252;2023-07-31T11:22:31;100350.34;;;24.68;77.99
46846;BME280;33947;46.804;134.252;2023-07-31T11:25:37;100339.03;;;24.63;78.60
46846;BME280;33947;46.804;134.252;2023-07-31T11:28:47;100345.63;;;24.70;78.44
46846;BME280;33947;46.804;134.252;2023-07-31T11:31:51;100338.03;;;24.64;78.78
46846;BME280;33947;46.804;134.252;2023-07-31T11:34:55;100321.41;;;24.47;78.73
46846;BME280;33947;46.804;134.252;2023-07-31T11:38:00;100319.09;;;24.42;78.57
46846;BME280;33947;46.804;134.252;2023-07-31T11:41:05;100342.97;;;24.18;80.90
46846;BME280;33947;46.804;134.252;2023-07-31T11:44:09;100331.41;;;24.16;79.99
46846;BME280;33947;46.804;134.252;2023-07-31T11:47:30;100344.25;;;24.13;80.40
46846;BME280;33947;46.804;134.252;2023-07-31T11:50:38;100341.22;;;24.07;80.81
46846;BME280;33947;46.804;134.252;2023-07-31T11:53:49;100333.84;;;23.97;81.08
46846;BME280;33947;46.804;134.252;2023-07-31T11:56:55;100335.91;;;23.84;81.44
46846;BME280;33947;46.804;134.252;2023-07-31T12:00:01;100336.19;;;23.81;81.46
46846;BME280;33947;46.804;134.252;2023-07-31T12:03:07;100343.59;;;23.79;82.04
46846;BME280;33947;46.804;134.252;2023-07-31T12:06:12;100340.88;;;23.79;81.55
46846;BME280;33947;46.804;134.252;2023-07-31T12:09:16;100324.72;;;23.77;81.17
46846;BME280;33947;46.804;134.252;2023-07-31T12:12:23;100336.31;;;23.79;81.86
46846;BME280;33947;46.804;134.252;2023-07-31T12:16:17;100337.69;;;23.52;82.80
46846;BME280;33947;46.804;134.252;2023-07-31T12:19:02;100344.28;;;23.38;83.80
46846;BME280;33947;46.804;134.252;2023-07-31T12:22:14;100361.13;;;23.42;83.94
46846;BME280;33947;46.804;134.252;2023-07-31T12:25:18;100346.91;;;23.29;83.51
46846;BME280;33947;46.804;134.252;2023-07-31T12:28:26;100342.81;;;23.23;83.86
46846;BME280;33947;46.804;134.252;2023-07-31T12:31:33;100350.22;;;23.21;84.33
46846;BME280;33947;46.804;134.252;2023-07-31T12:34:42;100364.03;;;23.18;84.83
46846;BME280;33947;46.804;134.252;2023-07-31T12:37:50;100366.75;;;23.18;84.68
46846;BME280;33947;46.804;134.252;2023-07-31T12:40:54;100343.75;;;23.01;85.39
46846;BME280;33947;46.804;134.252;2023-07-31T12:43:59;100347.44;;;22.99;85.05
46846;BME280;33947;46.804;134.252;2023-07-31T12:47:03;100362.47;;;23.04;85.28
46846;BME280;33947;46.804;134.252;2023-07-31T12:50:08;100355.72;;;22.98;85.13
46846;BME280;33947;46.804;134.252;2023-07-31T12:53:14;100364.84;;;22.97;84.93
46846;BME280;33947;46.804;134.252;2023-07-31T12:56:19;100363.75;;;22.88;85.23
46846;BME280;33947;46.804;134.252;2023-07-31T12:59:23;100331.88;;;22.69;85.67
46846;BME280;33947;46.804;134.252;2023-07-31T13:02:28;100359.69;;;22.71;85.88
46846;BME280;33947;46.804;134.252;2023-07-31T13:05:32;100352.41;;;22.72;85.53
46846;BME280;33947;46.804;134.252;2023-07-31T13:08:37;100365.59;;;22.76;85.61
46846;BME280;33947;46.804;134.252;2023-07-31T13:11:42;100372.00;;;22.75;85.34
46846;BME280;33947;46.804;134.252;2023-07-31T13:14:47;100362.16;;;22.63;85.61
46846;BME280;33947;46.804;134.252;2023-07-31T13:17:55;100375.97;;;22.60;86.03
46846;BME280;33947;46.804;134.252;2023-07-31T13:21:03;100382.72;;;22.65;85.58
46846;BME280;33947;46.804;134.252;2023-07-31T13:24:07;100378.41;;;22.51;86.19
46846;BME280;33947;46.804;134.252;2023-07-31T13:27:12;100346.50;;;22.32;86.20
46846;BME280;33947;46.804;134.252;2023-07-31T13:30:16;100371.72;;;22.44;86.79
46846;BME280;33947;46.804;134.252;2023-07-31T13:33:21;100382.06;;;22.39;86.85
46846;BME280;33947;46.804;134.252;2023-07-31T13:36:38;100385.91;;;22.36;87.30
46846;BME280;33947;46.804;134.252;2023-07-31T13:39:43;100372.81;;;22.07;89.70
46846;BME280;33947;46.804;134.252;2023-07-31T13:42:48;100372.97;;;22.29;87.41
46846;BME280;33947;46.804;134.252;2023-07-31T13:45:53;100354.47;;;22.11;87.88
46846;BME280;33947;46.804;134.252;2023-07-31T13:48:58;100368.16;;;22.21;87.45
46846;BME280;33947;46.804;134.252;2023-07-31T13:52:03;100357.09;;;22.24;86.96
46846;BME280;33947;46.804;134.252;2023-07-31T13:55:08;100360.91;;;22.21;87.12
46846;BME280;33947;46.804;134.252;2023-07-31T13:58:15;100365.34;;;22.22;86.47
46846;BME280;33947;46.804;134.252;2023-07-31T14:01:20;100372.44;;;22.12;86.94
46846;BME280;33947;46.804;134.252;2023-07-31T14:04:25;100379.06;;;22.08;87.54
46846;BME280;33947;46.804;134.252;2023-07-31T14:07:31;100393.22;;;22.00;88.02
46846;BME280;33947;46.804;134.252;2023-07-31T14:10:36;100391.25;;;22.02;88.18
46846;BME280;33947;46.804;134.252;2023-07-31T14:13:40;100377.25;;;22.08;87.20
46846;BME280;33947;46.804;134.252;2023-07-31T14:16:44;100355.31;;;21.89;87.94
46846;BME280;33947;46.804;134.252;2023-07-31T14:19:50;100370.94;;;21.96;88.13
46846;BME280;33947;46.804;134.252;2023-07-31T14:22:54;100370.59;;;22.01;87.33
46846;BME280;33947;46.804;134.252;2023-07-31T14:25:59;100359.22;;;21.85;87.61
46846;BME280;33947;46.804;134.252;2023-07-31T14:29:04;100353.75;;;21.62;88.57
46846;BME280;33947;46.804;134.252;2023-07-31T14:32:08;100364.84;;;21.70;88.53
46846;BME280;33947;46.804;134.252;2023-07-31T14:35:12;100384.75;;;21.69;88.57
46846;BME280;33947;46.804;134.252;2023-07-31T14:38:17;100363.03;;;21.58;88.40
46846;BME280;33947;46.804;134.252;2023-07-31T14:41:21;100378.88;;;21.51;88.99
46846;BME280;33947;46.804;134.252;2023-07-31T14:44:26;100371.84;;;21.48;89.17
46846;BME280;33947;46.804;134.252;2023-07-31T14:47:30;100378.13;;;21.49;89.06
46846;BME280;33947;46.804;134.252;2023-07-31T14:50:36;100394.13;;;21.52;89.24
46846;BME280;33947;46.804;134.252;2023-07-31T14:53:40;100381.00;;;21.34;90.01
46846;BME280;33947;46.804;134.252;2023-07-31T14:56:45;100377.91;;;21.28;90.63
46846;BME280;33947;46.804;134.252;2023-07-31T14:59:49;100369.81;;;21.28;90.87
46846;BME280;33947;46.804;134.252;2023-07-31T15:02:54;100340.25;;;21.13;90.50
46846;BME280;33947;46.804;134.252;2023-07-31T15:05:59;100385.84;;;21.42;90.61
46846;BME280;33947;46.804;134.252;2023-07-31T15:09:03;100371.84;;;21.48;90.00
46846;BME280;33947;46.804;134.252;2023-07-31T15:12:08;100356.84;;;21.44;89.68
46846;BME280;33947;46.804;134.252;2023-07-31T15:15:15;100356.75;;;21.46;89.21
46846;BME280;33947;46.804;134.252;2023-07-31T15:18:23;100364.63;;;21.49;89.27
46846;BME280;33947;46.804;134.252;2023-07-31T15:21:27;100335.94;;;21.35;89.11
46846;BME280;33947;46.804;134.252;2023-07-31T15:24:32;100315.38;;;21.21;89.02
46846;BME280;33947;46.804;134.252;2023-07-31T15:27:37;100333.13;;;21.36;88.66
46846;BME280;33947;46.804;134.252;2023-07-31T15:30:41;100300.78;;;20.99;89.56
46846;BME280;33947;46.804;134.252;2023-07-31T15:33:46;100321.47;;;21.11;89.90
46846;BME280;33947;46.804;134.252;2023-07-31T15:36:50;100320.59;;;21.11;90.23
46846;BME280;33947;46.804;134.252;2023-07-31T15:39:55;100327.13;;;21.08;90.34
46846;BME280;33947;46.804;134.252;2023-07-31T15:43:00;100319.69;;;20.99;90.63
46846;BME280;33947;46.804;134.252;2023-07-31T15:46:06;100297.41;;;21.08;89.25
46846;BME280;33947;46.804;134.252;2023-07-31T15:49:10;100306.25;;;21.10;89.52
46846;BME280;33947;46.804;134.252;2023-07-31T15:52:17;100299.59;;;21.03;90.21
46846;BME280;33947;46.804;134.252;2023-07-31T15:55:22;100291.19;;;20.95;90.83
46846;BME280;33947;46.804;134.252;2023-07-31T15:58:28;100296.72;;;20.93;90.60
46846;BME280;33947;46.804;134.252;2023-07-31T16:01:33;100309.56;;;20.90;91.17
46846;BME280;33947;46.804;134.252;2023-07-31T16:04:38;100296.31;;;20.74;91.56
46846;BME280;33947;46.804;134.252;2023-07-31T16:07:43;100302.03;;;20.82;90.89
46846;BME280;33947;46.804;134.252;2023-07-31T16:10:48;100298.78;;;20.77;91.03
46846;BME280;33947;46.804;134.252;2023-07-31T16:13:52;100303.00;;;20.81;90.64
46846;BME280;33947;46.804;134.252;2023-07-31T16:16:56;100283.28;;;20.67;90.59